sensor_id;sensor_type;location;lat;lon;timestamp;pressure;altitude;pressure_sealevel;temperature
64960;BMP180;51487;52.266;10.542;2023-12-07T00:01:05;100738.00;;;2.40
64960;BMP180;51487;52.266;10.542;2023-12-07T00:03:31;100745.00;;;2.30
64960;BMP180;51487;52.266;10.542;2023-12-07T00:05:57;100753.00;;;2.40
64960;BMP180;51487;52.266;10.542;2023-12-07T00:08:22;100756.00;;;2.40
64960;BMP180;51487;52.266;10.542;2023-12-07T00:10:48;100743.00;;;2.50
64960;BMP180;51487;52.266;10.542;2023-12-07T00:13:13;100755.00;;;2.10
64960;BMP180;51487;52.266;10.542;2023-12-07T00:15:39;100753.00;;;2.30
64960;BMP180;51487;52.266;10.542;2023-12-07T00:18:05;100756.00;;;2.40
64960;BMP180;51487;52.266;10.542;2023-12-07T00:20:30;100751.00;;;2.20
64960;BMP180;51487;52.266;10.542;2023-12-07T00:22:56;100754.00;;;2.40
64960;BMP180;51487;52.266;10.542;2023-12-07T00:25:22;100757.00;;;2.40
64960;BMP180;51487;52.266;10.542;2023-12-07T00:27:48;100759.00;;;2.40
64960;BMP180;51487;52.266;10.542;2023-12-07T00:30:14;100769.00;;;2.40
64960;BMP180;51487;52.266;10.542;2023-12-07T00:32:40;100764.00;;;2.30
64960;BMP180;51487;52.266;10.542;2023-12-07T00:35:09;100763.00;;;2.40
64960;BMP180;51487;52.266;10.542;2023-12-07T00:37:36;100772.00;;;2.10
64960;BMP180;51487;52.266;10.542;2023-12-07T00:40:02;100769.00;;;2.10
64960;BMP180;51487;52.266;10.542;2023-12-07T00:42:29;100767.00;;;2.30
64960;BMP180;51487;52.266;10.542;2023-12-07T00:44:55;100776.00;;;2.20
64960;BMP180;51487;52.266;10.542;2023-12-07T00:47:21;100773.00;;;2.40
64960;BMP180;51487;52.266;10.542;2023-12-07T00:49:47;100786.00;;;2.30
64960;BMP180;51487;52.266;10.542;2023-12-07T00:52:13;100787.00;;;2.30
64960;BMP180;51487;52.266;10.542;2023-12-07T00:54:39;100791.00;;;2.40
64960;BMP180;51487;52.266;10.542;2023-12-07T00:57:05;100793.00;;;2.40
64960;BMP180;51487;52.266;10.542;2023-12-07T00:59:31;100794.00;;;2.30
64960;BMP180;51487;52.266;10.542;2023-12-07T01:02:11;100797.00;;;2.30
64960;BMP180;51487;52.266;10.542;2023-12-07T01:04:36;100803.00;;;2.20
64960;BMP180;51487;52.266;10.542;2023-12-07T01:07:02;100801.00;;;2.20
64960;BMP180;51487;52.266;10.542;2023-12-07T01:09:28;100800.00;;;2.10
64960;BMP180;51487;52.266;10.542;2023-12-07T01:11:53;100808.00;;;2.20
64960;BMP180;51487;52.266;10.542;2023-12-07T01:14:19;100811.00;;;2.30
64960;BMP180;51487;52.266;10.542;2023-12-07T01:16:44;100816.00;;;2.30
64960;BMP180;51487;52.266;10.542;2023-12-07T01:19:10;100814.00;;;2.40
64960;BMP180;51487;52.266;10.542;2023-12-07T01:21:39;100820.00;;;2.30
64960;BMP180;51487;52.266;10.542;2023-12-07T01:24:06;100821.00;;;2.40
64960;BMP180;51487;52.266;10.542;2023-12-07T01:26:32;100831.00;;;2.50
64960;BMP180;51487;52.266;10.542;2023-12-07T01:28:58;100830.00;;;2.40
64960;BMP180;51487;52.266;10.542;2023-12-07T01:31:23;100835.00;;;2.30
64960;BMP180;51487;52.266;10.542;2023-12-07T01:33:49;100834.00;;;2.30
64960;BMP180;51487;52.266;10.542;2023-12-07T01:36:14;100836.00;;;2.20
64960;BMP180;51487;52.266;10.542;2023-12-07T01:38:40;100834.00;;;2.20
64960;BMP180;51487;52.266;10.542;2023-12-07T01:41:05;100839.00;;;2.30
64960;BMP180;51487;52.266;10.542;2023-12-07T01:43:31;100833.00;;;2.30
64960;BMP180;51487;52.266;10.542;2023-12-07T01:45:57;100848.00;;;2.30
64960;BMP180;51487;52.266;10.542;2023-12-07T01:48:24;100846.00;;;2.20
64960;BMP180;51487;52.266;10.542;2023-12-07T01:50:52;100852.00;;;2.20
64960;BMP180;51487;52.266;10.542;2023-12-07T01:53:21;100855.00;;;2.40
64960;BMP180;51487;52.266;10.542;2023-12-07T01:55:49;100856.00;;;2.50
64960;BMP180;51487;52.266;10.542;2023-12-07T01:58:17;100850.00;;;2.50
64960;BMP180;51487;52.266;10.542;2023-12-07T02:00:45;100858.00;;;2.40
64960;BMP180;51487;52.266;10.542;2023-12-07T02:03:12;100860.00;;;2.40
64960;BMP180;51487;52.266;10.542;2023-12-07T02:05:42;100859.00;;;2.50
64960;BMP180;51487;52.266;10.542;2023-12-07T02:08:11;100856.00;;;2.50
64960;BMP180;51487;52.266;10.542;2023-12-07T02:10:37;100859.00;;;2.40
64960;BMP180;51487;52.266;10.542;2023-12-07T02:13:03;100859.00;;;2.50
64960;BMP180;51487;52.266;10.542;2023-12-07T02:15:29;100865.00;;;2.30
64960;BMP180;51487;52.266;10.542;2023-12-07T02:18:10;100860.00;;;2.40
64960;BMP180;51487;52.266;10.542;2023-12-07T02:23:23;100869.00;;;2.40
64960;BMP180;51487;52.266;10.542;2023-12-07T02:25:52;100869.00;;;2.30
64960;BMP180;51487;52.266;10.542;2023-12-07T02:28:20;100865.00;;;2.50
64960;BMP180;51487;52.266;10.542;2023-12-07T02:30:45;100860.00;;;2.40
64960;BMP180;51487;52.266;10.542;2023-12-07T02:33:12;100862.00;;;2.50
64960;BMP180;51487;52.266;10.542;2023-12-07T02:35:39;100859.00;;;2.60
64960;BMP180;51487;52.266;10.542;2023-12-07T02:38:06;100865.00;;;2.50
64960;BMP180;51487;52.266;10.542;2023-12-07T02:40:33;100864.00;;;2.50
64960;BMP180;51487;52.266;10.542;2023-12-07T02:43:00;100861.00;;;2.50
64960;BMP180;51487;52.266;10.542;2023-12-07T02:45:28;100875.00;;;2.60
64960;BMP180;51487;52.266;10.542;2023-12-07T02:47:54;100869.00;;;2.60
64960;BMP180;51487;52.266;10.542;2023-12-07T02:50:20;100874.00;;;2.60
64960;BMP180;51487;52.266;10.542;2023-12-07T02:52:46;100877.00;;;2.70
64960;BMP180;51487;52.266;10.542;2023-12-07T02:55:12;100872.00;;;2.40
64960;BMP180;51487;52.266;10.542;2023-12-07T02:57:37;100880.00;;;2.40
64960;BMP180;51487;52.266;10.542;2023-12-07T03:00:04;100880.00;;;2.40
64960;BMP180;51487;52.266;10.542;2023-12-07T03:02:35;100878.00;;;2.30
64960;BMP180;51487;52.266;10.542;2023-12-07T03:05:01;100881.00;;;2.50
64960;BMP180;51487;52.266;10.542;2023-12-07T03:07:27;100883.00;;;2.40
64960;BMP180;51487;52.266;10.542;2023-12-07T03:09:53;100880.00;;;2.50
64960;BMP180;51487;52.266;10.542;2023-12-07T03:12:18;100892.00;;;2.70
64960;BMP180;51487;52.266;10.542;2023-12-07T03:16:16;100896.00;;;2.70
64960;BMP180;51487;52.266;10.542;2023-12-07T03:18:42;100900.00;;;2.50
64960;BMP180;51487;52.266;10.542;2023-12-07T03:21:07;100892.00;;;2.50
64960;BMP180;51487;52.266;10.542;2023-12-07T03:23:33;100899.00;;;2.60
64960;BMP180;51487;52.266;10.542;2023-12-07T03:25:58;100887.00;;;2.50
64960;BMP180;51487;52.266;10.542;2023-12-07T03:28:24;100898.00;;;2.60
64960;BMP180;51487;52.266;10.542;2023-12-07T03:30:49;100904.00;;;2.60
64960;BMP180;51487;52.266;10.542;2023-12-07T03:33:15;100901.00;;;2.50
64960;BMP180;51487;52.266;10.542;2023-12-07T03:35:40;100899.00;;;2.70
64960;BMP180;51487;52.266;10.542;2023-12-07T03:38:06;100896.00;;;2.70
64960;BMP180;51487;52.266;10.542;2023-12-07T03:40:31;100909.00;;;2.70
64960;BMP180;51487;52.266;10.542;2023-12-07T03:42:57;100900.00;;;2.70
64960;BMP180;51487;52.266;10.542;2023-12-07T03:45:23;100904.00;;;2.80
64960;BMP180;51487;52.266;10.542;2023-12-07T03:47:49;100909.00;;;2.60
64960;BMP180;51487;52.266;10.542;2023-12-07T03:50:15;100902.00;;;2.70
64960;BMP180;51487;52.266;10.542;2023-12-07T03:52:40;100915.00;;;2.60
64960;BMP180;51487;52.266;10.542;2023-12-07T03:55:06;100906.00;;;2.60
64960;BMP180;51487;52.266;10.542;2023-12-07T03:57:32;100913.00;;;2.60
64960;BMP180;51487;52.266;10.542;2023-12-07T03:59:58;100911.00;;;2.60
64960;BMP180;51487;52.266;10.542;2023-12-07T04:02:23;100906.00;;;2.60
64960;BMP180;51487;52.266;10.542;2023-12-07T04:04:49;100909.00;;;2.50
64960;BMP180;51487;52.266;10.542;2023-12-07T04:07:15;100921.00;;;2.60
64960;BMP180;51487;52.266;10.542;2023-12-07T04:09:40;100921.00;;;2.60
64960;BMP180;51487;52.266;10.542;2023-12-07T04:12:06;100916.00;;;2.60
64960;BMP180;51487;52.266;10.542;2023-12-07T04:14:31;100919.00;;;2.70
64960;BMP180;51487;52.266;10.542;2023-12-07T04:16:57;100923.00;;;2.60
64960;BMP180;51487;52.266;10.542;2023-12-07T04:19:22;100923.00;;;2.40
64960;BMP180;51487;52.266;10.542;2023-12-07T04:21:48;100922.00;;;2.50
64960;BMP180;51487;52.266;10.542;2023-12-07T04:24:13;100924.00;;;2.70
64960;BMP180;51487;52.266;10.542;2023-12-07T04:26:39;100927.00;;;2.70
64960;BMP180;51487;52.266;10.542;2023-12-07T04:29:04;100933.00;;;2.70
64960;BMP180;51487;52.266;10.542;2023-12-07T04:31:30;100930.00;;;2.70
64960;BMP180;51487;52.266;10.542;2023-12-07T04:33:55;100933.00;;;2.80
64960;BMP180;51487;52.266;10.542;2023-12-07T04:36:21;100932.00;;;2.80
64960;BMP180;51487;52.266;10.542;2023-12-07T04:38:46;100935.00;;;2.90
64960;BMP180;51487;52.266;10.542;2023-12-07T04:41:12;100933.00;;;2.80
64960;BMP180;51487;52.266;10.542;2023-12-07T04:43:37;100938.00;;;2.60
64960;BMP180;51487;52.266;10.542;2023-12-07T04:46:03;100940.00;;;2.60
64960;BMP180;51487;52.266;10.542;2023-12-07T04:48:29;100943.00;;;2.70
64960;BMP180;51487;52.266;10.542;2023-12-07T04:50:54;100932.00;;;2.60
64960;BMP180;51487;52.266;10.542;2023-12-07T04:53:19;100941.00;;;2.60
64960;BMP180;51487;52.266;10.542;2023-12-07T04:55:45;100951.00;;;2.60
64960;BMP180;51487;52.266;10.542;2023-12-07T04:58:15;100948.00;;;2.50
64960;BMP180;51487;52.266;10.542;2023-12-07T05:00:41;100942.00;;;2.70
64960;BMP180;51487;52.266;10.542;2023-12-07T05:03:06;100944.00;;;2.60
64960;BMP180;51487;52.266;10.542;2023-12-07T05:05:32;100953.00;;;2.60
64960;BMP180;51487;52.266;10.542;2023-12-07T05:07:57;100942.00;;;2.70
64960;BMP180;51487;52.266;10.542;2023-12-07T05:10:23;100942.00;;;2.70
64960;BMP180;51487;52.266;10.542;2023-12-07T05:12:48;100937.00;;;2.80
64960;BMP180;51487;52.266;10.542;2023-12-07T05:15:14;100943.00;;;2.70
64960;BMP180;51487;52.266;10.542;2023-12-07T05:17:39;100949.00;;;2.70
64960;BMP180;51487;52.266;10.542;2023-12-07T05:20:05;100944.00;;;2.60
64960;BMP180;51487;52.266;10.542;2023-12-07T05:22:32;100952.00;;;2.60
64960;BMP180;51487;52.266;10.542;2023-12-07T05:24:57;100955.00;;;2.70
64960;BMP180;51487;52.266;10.542;2023-12-07T05:27:26;100949.00;;;2.60
64960;BMP180;51487;52.266;10.542;2023-12-07T05:29:51;100956.00;;;2.80
64960;BMP180;51487;52.266;10.542;2023-12-07T05:32:17;100955.00;;;2.70
64960;BMP180;51487;52.266;10.542;2023-12-07T05:34:42;100960.00;;;2.80
64960;BMP180;51487;52.266;10.542;2023-12-07T05:37:08;100953.00;;;2.80
64960;BMP180;51487;52.266;10.542;2023-12-07T05:39:34;100953.00;;;2.70
64960;BMP180;51487;52.266;10.542;2023-12-07T05:41:59;100952.00;;;2.80
64960;BMP180;51487;52.266;10.542;2023-12-07T05:44:25;100960.00;;;2.90
64960;BMP180;51487;52.266;10.542;2023-12-07T05:46:50;100956.00;;;2.80
64960;BMP180;51487;52.266;10.542;2023-12-07T05:49:16;100950.00;;;2.90
64960;BMP180;51487;52.266;10.542;2023-12-07T05:51:42;100946.00;;;2.80
64960;BMP180;51487;52.266;10.542;2023-12-07T05:54:07;100951.00;;;2.80
64960;BMP180;51487;52.266;10.542;2023-12-07T05:56:33;100952.00;;;2.80
64960;BMP180;51487;52.266;10.542;2023-12-07T05:58:59;100955.00;;;2.90
64960;BMP180;51487;52.266;10.542;2023-12-07T06:01:24;100956.00;;;2.90
64960;BMP180;51487;52.266;10.542;2023-12-07T06:03:50;100956.00;;;2.70
64960;BMP180;51487;52.266;10.542;2023-12-07T06:06:15;100957.00;;;2.90
64960;BMP180;51487;52.266;10.542;2023-12-07T06:08:41;100942.00;;;2.90
64960;BMP180;51487;52.266;10.542;2023-12-07T06:11:07;100954.00;;;2.90
64960;BMP180;51487;52.266;10.542;2023-12-07T06:13:33;100951.00;;;3.00
64960;BMP180;51487;52.266;10.542;2023-12-07T06:15:59;100959.00;;;3.00
64960;BMP180;51487;52.266;10.542;2023-12-07T06:18:26;100959.00;;;3.00
64960;BMP180;51487;52.266;10.542;2023-12-07T06:20:51;100960.00;;;2.90
64960;BMP180;51487;52.266;10.542;2023-12-07T06:23:17;100962.00;;;2.90
64960;BMP180;51487;52.266;10.542;2023-12-07T06:25:43;100960.00;;;2.90
64960;BMP180;51487;52.266;10.542;2023-12-07T06:28:12;100968.00;;;2.90
64960;BMP180;51487;52.266;10.542;2023-12-07T06:30:38;100965.00;;;3.00
64960;BMP180;51487;52.266;10.542;2023-12-07T06:33:03;100966.00;;;3.00
64960;BMP180;51487;52.266;10.542;2023-12-07T06:35:29;100970.00;;;3.00
64960;BMP180;51487;52.266;10.542;2023-12-07T06:37:55;100979.00;;;3.00
64960;BMP180;51487;52.266;10.542;2023-12-07T06:40:21;100977.00;;;3.00
64960;BMP180;51487;52.266;10.542;2023-12-07T06:42:47;100977.00;;;3.00
64960;BMP180;51487;52.266;10.542;2023-12-07T06:45:13;100982.00;;;3.10
64960;BMP180;51487;52.266;10.542;2023-12-07T06:47:42;100985.00;;;3.20
64960;BMP180;51487;52.266;10.542;2023-12-07T06:50:09;100989.00;;;3.20
64960;BMP180;51487;52.266;10.542;2023-12-07T06:52:36;100987.00;;;3.20
64960;BMP180;51487;52.266;10.542;2023-12-07T06:55:05;100991.00;;;3.20
64960;BMP180;51487;52.266;10.542;2023-12-07T06:57:31;100992.00;;;3.20
64960;BMP180;51487;52.266;10.542;2023-12-07T06:59:58;100993.00;;;3.20
64960;BMP180;51487;52.266;10.542;2023-12-07T07:02:24;100999.00;;;3.10
64960;BMP180;51487;52.266;10.542;2023-12-07T07:04:49;100996.00;;;3.10
64960;BMP180;51487;52.266;10.542;2023-12-07T07:07:15;100997.00;;;3.10
64960;BMP180;51487;52.266;10.542;2023-12-07T07:09:41;100999.00;;;3.10
64960;BMP180;51487;52.266;10.542;2023-12-07T07:12:07;101010.00;;;3.20
64960;BMP180;51487;52.266;10.542;2023-12-07T07:14:32;101014.00;;;3.20
64960;BMP180;51487;52.266;10.542;2023-12-07T07:16:59;101011.00;;;3.20
64960;BMP180;51487;52.266;10.542;2023-12-07T07:19:25;101019.00;;;3.30
64960;BMP180;51487;52.266;10.542;2023-12-07T07:21:50;101016.00;;;3.10
64960;BMP180;51487;52.266;10.542;2023-12-07T07:24:16;101014.00;;;3.10
64960;BMP180;51487;52.266;10.542;2023-12-07T07:26:41;101020.00;;;3.10
64960;BMP180;51487;52.266;10.542;2023-12-07T07:29:06;101018.00;;;3.20
64960;BMP180;51487;52.266;10.542;2023-12-07T07:31:33;101020.00;;;3.20
64960;BMP180;51487;52.266;10.542;2023-12-07T07:33:59;101020.00;;;3.20
64960;BMP180;51487;52.266;10.542;2023-12-07T07:36:25;101022.00;;;3.20
64960;BMP180;51487;52.266;10.542;2023-12-07T07:38:50;101021.00;;;3.20
64960;BMP180;51487;52.266;10.542;2023-12-07T07:41:16;101025.00;;;3.30
64960;BMP180;51487;52.266;10.542;2023-12-07T07:43:41;101022.00;;;3.30
64960;BMP180;51487;52.266;10.542;2023-12-07T07:46:08;101031.00;;;3.30
64960;BMP180;51487;52.266;10.542;2023-12-07T07:48:33;101033.00;;;3.20
64960;BMP180;51487;52.266;10.542;2023-12-07T07:50:59;101021.00;;;3.10
64960;BMP180;51487;52.266;10.542;2023-12-07T07:53:24;101016.00;;;3.20
64960;BMP180;51487;52.266;10.542;2023-12-07T07:55:50;101017.00;;;3.20
64960;BMP180;51487;52.266;10.542;2023-12-07T07:58:15;101025.00;;;3.20
64960;BMP180;51487;52.266;10.542;2023-12-07T08:00:41;101024.00;;;3.30
64960;BMP180;51487;52.266;10.542;2023-12-07T08:03:07;101029.00;;;3.40
64960;BMP180;51487;52.266;10.542;2023-12-07T08:05:33;101029.00;;;3.30
64960;BMP180;51487;52.266;10.542;2023-12-07T08:07:58;101025.00;;;3.40
64960;BMP180;51487;52.266;10.542;2023-12-07T08:10:24;101040.00;;;3.40
64960;BMP180;51487;52.266;10.542;2023-12-07T08:12:49;101037.00;;;3.40
64960;BMP180;51487;52.266;10.542;2023-12-07T08:15:15;101039.00;;;3.30
64960;BMP180;51487;52.266;10.542;2023-12-07T08:17:41;101039.00;;;3.50
64960;BMP180;51487;52.266;10.542;2023-12-07T08:20:08;101041.00;;;3.40
64960;BMP180;51487;52.266;10.542;2023-12-07T08:22:36;101046.00;;;3.50
64960;BMP180;51487;52.266;10.542;2023-12-07T08:25:03;101044.00;;;3.40
64960;BMP180;51487;52.266;10.542;2023-12-07T08:27:33;101044.00;;;3.40
64960;BMP180;51487;52.266;10.542;2023-12-07T08:30:02;101048.00;;;3.50
64960;BMP180;51487;52.266;10.542;2023-12-07T08:32:28;101047.00;;;3.60
64960;BMP180;51487;52.266;10.542;2023-12-07T08:34:54;101045.00;;;3.40
64960;BMP180;51487;52.266;10.542;2023-12-07T08:37:20;101054.00;;;3.50
64960;BMP180;51487;52.266;10.542;2023-12-07T08:39:45;101061.00;;;3.60
64960;BMP180;51487;52.266;10.542;2023-12-07T08:42:11;101050.00;;;3.50
64960;BMP180;51487;52.266;10.542;2023-12-07T08:44:37;101061.00;;;3.50
64960;BMP180;51487;52.266;10.542;2023-12-07T08:47:04;101049.00;;;3.60
64960;BMP180;51487;52.266;10.542;2023-12-07T08:49:30;101058.00;;;3.60
64960;BMP180;51487;52.266;10.542;2023-12-07T08:51:57;101056.00;;;3.60
64960;BMP180;51487;52.266;10.542;2023-12-07T08:54:22;101052.00;;;3.50
64960;BMP180;51487;52.266;10.542;2023-12-07T08:56:48;101058.00;;;3.50
64960;BMP180;51487;52.266;10.542;2023-12-07T08:59:13;101053.00;;;3.60
64960;BMP180;51487;52.266;10.542;2023-12-07T09:01:39;101055.00;;;3.60
64960;BMP180;51487;52.266;10.542;2023-12-07T09:04:05;101052.00;;;3.70
64960;BMP180;51487;52.266;10.542;2023-12-07T09:06:30;101046.00;;;3.50
64960;BMP180;51487;52.266;10.542;2023-12-07T09:08:56;101053.00;;;3.60
64960;BMP180;51487;52.266;10.542;2023-12-07T09:11:22;101067.00;;;3.50
64960;BMP180;51487;52.266;10.542;2023-12-07T09:13:48;101056.00;;;3.60
64960;BMP180;51487;52.266;10.542;2023-12-07T09:16:13;101059.00;;;3.60
64960;BMP180;51487;52.266;10.542;2023-12-07T09:18:41;101059.00;;;3.70
64960;BMP180;51487;52.266;10.542;2023-12-07T09:21:07;101057.00;;;3.80
64960;BMP180;51487;52.266;10.542;2023-12-07T09:23:34;101066.00;;;3.80
64960;BMP180;51487;52.266;10.542;2023-12-07T09:26:00;101067.00;;;3.70
64960;BMP180;51487;52.266;10.542;2023-12-07T09:28:26;101068.00;;;3.80
64960;BMP180;51487;52.266;10.542;2023-12-07T09:30:51;101076.00;;;4.00
64960;BMP180;51487;52.266;10.542;2023-12-07T09:33:17;101077.00;;;3.80
64960;BMP180;51487;52.266;10.542;2023-12-07T09:35:42;101079.00;;;4.00
64960;BMP180;51487;52.266;10.542;2023-12-07T09:38:08;101081.00;;;4.00
64960;BMP180;51487;52.266;10.542;2023-12-07T09:40:35;101073.00;;;4.00
64960;BMP180;51487;52.266;10.542;2023-12-07T09:43:01;101071.00;;;4.00
64960;BMP180;51487;52.266;10.542;2023-12-07T09:45:26;101073.00;;;3.80
64960;BMP180;51487;52.266;10.542;2023-12-07T09:47:53;101076.00;;;4.00
64960;BMP180;51487;52.266;10.542;2023-12-07T09:50:25;101076.00;;;4.10
64960;BMP180;51487;52.266;10.542;2023-12-07T09:52:54;101066.00;;;4.10
64960;BMP180;51487;52.266;10.542;2023-12-07T09:55:22;101067.00;;;4.00
64960;BMP180;51487;52.266;10.542;2023-12-07T09:57:49;101071.00;;;4.00
64960;BMP180;51487;52.266;10.542;2023-12-07T10:00:15;101065.00;;;4.10
64960;BMP180;51487;52.266;10.542;2023-12-07T10:02:44;101070.00;;;4.10
64960;BMP180;51487;52.266;10.542;2023-12-07T10:05:13;101061.00;;;4.10
64960;BMP180;51487;52.266;10.542;2023-12-07T10:07:46;101065.00;;;4.00
64960;BMP180;51487;52.266;10.542;2023-12-07T10:10:16;101065.00;;;4.00
64960;BMP180;51487;52.266;10.542;2023-12-07T10:15:23;101064.00;;;4.00
64960;BMP180;51487;52.266;10.542;2023-12-07T10:17:52;101064.00;;;4.00
64960;BMP180;51487;52.266;10.542;2023-12-07T10:20:23;101062.00;;;3.90
64960;BMP180;51487;52.266;10.542;2023-12-07T10:23:07;101056.00;;;3.90
64960;BMP180;51487;52.266;10.542;2023-12-07T10:25:38;101051.00;;;3.90
64960;BMP180;51487;52.266;10.542;2023-12-07T10:28:09;101050.00;;;4.00
64960;BMP180;51487;52.266;10.542;2023-12-07T10:30:39;101049.00;;;4.10
64960;BMP180;51487;52.266;10.542;2023-12-07T10:33:07;101056.00;;;4.10
64960;BMP180;51487;52.266;10.542;2023-12-07T10:35:33;101050.00;;;4.10
64960;BMP180;51487;52.266;10.542;2023-12-07T10:38:03;101045.00;;;4.10
64960;BMP180;51487;52.266;10.542;2023-12-07T10:40:28;101054.00;;;4.10
64960;BMP180;51487;52.266;10.542;2023-12-07T10:42:56;101055.00;;;3.90
64960;BMP180;51487;52.266;10.542;2023-12-07T10:45:29;101051.00;;;4.00
64960;BMP180;51487;52.266;10.542;2023-12-07T10:48:02;101046.00;;;4.00
64960;BMP180;51487;52.266;10.542;2023-12-07T10:50:31;101046.00;;;4.20
64960;BMP180;51487;52.266;10.542;2023-12-07T10:53:07;101046.00;;;4.20
64960;BMP180;51487;52.266;10.542;2023-12-07T10:55:42;101058.00;;;4.10
64960;BMP180;51487;52.266;10.542;2023-12-07T10:58:14;101048.00;;;4.30
64960;BMP180;51487;52.266;10.542;2023-12-07T11:00:43;101041.00;;;4.10
64960;BMP180;51487;52.266;10.542;2023-12-07T11:03:16;101040.00;;;4.10
64960;BMP180;51487;52.266;10.542;2023-12-07T11:05:48;101043.00;;;4.10
64960;BMP180;51487;52.266;10.542;2023-12-07T11:08:29;101033.00;;;4.10
64960;BMP180;51487;52.266;10.542;2023-12-07T11:11:06;101029.00;;;4.20
64960;BMP180;51487;52.266;10.542;2023-12-07T11:13:38;101039.00;;;4.30
64960;BMP180;51487;52.266;10.542;2023-12-07T11:16:05;101039.00;;;4.30
64960;BMP180;51487;52.266;10.542;2023-12-07T11:18:30;101036.00;;;4.40
64960;BMP180;51487;52.266;10.542;2023-12-07T11:20:57;101031.00;;;4.30
64960;BMP180;51487;52.266;10.542;2023-12-07T11:23:23;101032.00;;;4.30
64960;BMP180;51487;52.266;10.542;2023-12-07T11:25:50;101033.00;;;4.30
64960;BMP180;51487;52.266;10.542;2023-12-07T11:28:17;101030.00;;;4.30
64960;BMP180;51487;52.266;10.542;2023-12-07T11:30:46;101031.00;;;4.40
64960;BMP180;51487;52.266;10.542;2023-12-07T11:33:13;101038.00;;;4.40
64960;BMP180;51487;52.266;10.542;2023-12-07T11:38:28;101037.00;;;4.40
64960;BMP180;51487;52.266;10.542;2023-12-07T11:40:55;101036.00;;;4.30
64960;BMP180;51487;52.266;10.542;2023-12-07T11:46:07;101033.00;;;4.50
64960;BMP180;51487;52.266;10.542;2023-12-07T11:48:33;101030.00;;;4.60
64960;BMP180;51487;52.266;10.542;2023-12-07T11:51:08;101029.00;;;4.50
64960;BMP180;51487;52.266;10.542;2023-12-07T11:53:36;101026.00;;;4.40
64960;BMP180;51487;52.266;10.542;2023-12-07T11:56:07;101018.00;;;4.50
64960;BMP180;51487;52.266;10.542;2023-12-07T11:58:36;101022.00;;;4.50
64960;BMP180;51487;52.266;10.542;2023-12-07T12:01:03;101022.00;;;4.60
64960;BMP180;51487;52.266;10.542;2023-12-07T12:03:30;101010.00;;;4.40
64960;BMP180;51487;52.266;10.542;2023-12-07T12:05:57;101013.00;;;4.60
64960;BMP180;51487;52.266;10.542;2023-12-07T12:08:23;101010.00;;;4.60
64960;BMP180;51487;52.266;10.542;2023-12-07T12:10:53;101005.00;;;4.50
64960;BMP180;51487;52.266;10.542;2023-12-07T12:13:29;101003.00;;;4.60
64960;BMP180;51487;52.266;10.542;2023-12-07T12:15:58;101009.00;;;4.50
64960;BMP180;51487;52.266;10.542;2023-12-07T12:18:25;101010.00;;;4.60
64960;BMP180;51487;52.266;10.542;2023-12-07T12:20:52;101003.00;;;4.50
64960;BMP180;51487;52.266;10.542;2023-12-07T12:23:19;101005.00;;;4.60
64960;BMP180;51487;52.266;10.542;2023-12-07T12:25:45;101001.00;;;4.60
64960;BMP180;51487;52.266;10.542;2023-12-07T12:28:11;100999.00;;;4.50
64960;BMP180;51487;52.266;10.542;2023-12-07T12:30:41;100992.00;;;4.60
64960;BMP180;51487;52.266;10.542;2023-12-07T12:33:07;100998.00;;;4.50
64960;BMP180;51487;52.266;10.542;2023-12-07T12:35:33;100992.00;;;4.50
64960;BMP180;51487;52.266;10.542;2023-12-07T12:37:58;100997.00;;;4.60
64960;BMP180;51487;52.266;10.542;2023-12-07T12:40:27;100994.00;;;4.50
64960;BMP180;51487;52.266;10.542;2023-12-07T12:42:57;100996.00;;;4.60
64960;BMP180;51487;52.266;10.542;2023-12-07T12:45:22;101002.00;;;4.60
64960;BMP180;51487;52.266;10.542;2023-12-07T12:47:48;101002.00;;;4.60
64960;BMP180;51487;52.266;10.542;2023-12-07T12:50:39;100993.00;;;4.50
64960;BMP180;51487;52.266;10.542;2023-12-07T12:53:08;100991.00;;;4.60
64960;BMP180;51487;52.266;10.542;2023-12-07T12:55:36;100982.00;;;4.40
64960;BMP180;51487;52.266;10.542;2023-12-07T12:58:04;100982.00;;;4.50
64960;BMP180;51487;52.266;10.542;2023-12-07T13:00:33;100970.00;;;4.40
64960;BMP180;51487;52.266;10.542;2023-12-07T13:03:03;100972.00;;;4.40
64960;BMP180;51487;52.266;10.542;2023-12-07T13:05:30;100973.00;;;4.40
64960;BMP180;51487;52.266;10.542;2023-12-07T13:07:57;100979.00;;;4.40
64960;BMP180;51487;52.266;10.542;2023-12-07T13:10:25;100981.00;;;4.50
64960;BMP180;51487;52.266;10.542;2023-12-07T13:12:51;100980.00;;;4.50
64960;BMP180;51487;52.266;10.542;2023-12-07T13:15:16;100979.00;;;4.50
64960;BMP180;51487;52.266;10.542;2023-12-07T13:17:42;100974.00;;;4.60
64960;BMP180;51487;52.266;10.542;2023-12-07T13:20:09;100978.00;;;4.40
64960;BMP180;51487;52.266;10.542;2023-12-07T13:22:42;100971.00;;;4.40
64960;BMP180;51487;52.266;10.542;2023-12-07T13:25:12;100975.00;;;4.50
64960;BMP180;51487;52.266;10.542;2023-12-07T13:27:39;100971.00;;;4.50
64960;BMP180;51487;52.266;10.542;2023-12-07T13:30:06;100967.00;;;4.50
64960;BMP180;51487;52.266;10.542;2023-12-07T13:32:35;100967.00;;;4.40
64960;BMP180;51487;52.266;10.542;2023-12-07T13:35:08;100974.00;;;4.50
64960;BMP180;51487;52.266;10.542;2023-12-07T13:37:34;100970.00;;;4.50
64960;BMP180;51487;52.266;10.542;2023-12-07T13:40:00;100974.00;;;4.50
64960;BMP180;51487;52.266;10.542;2023-12-07T13:42:28;100970.00;;;4.40
64960;BMP180;51487;52.266;10.542;2023-12-07T13:44:56;100962.00;;;4.40
64960;BMP180;51487;52.266;10.542;2023-12-07T13:47:26;100968.00;;;4.40
64960;BMP180;51487;52.266;10.542;2023-12-07T13:50:01;100961.00;;;4.40
64960;BMP180;51487;52.266;10.542;2023-12-07T13:52:29;100968.00;;;4.30
64960;BMP180;51487;52.266;10.542;2023-12-07T13:54:55;100960.00;;;4.40
64960;BMP180;51487;52.266;10.542;2023-12-07T13:57:21;100946.00;;;4.30
64960;BMP180;51487;52.266;10.542;2023-12-07T13:59:49;100942.00;;;4.40
64960;BMP180;51487;52.266;10.542;2023-12-07T14:02:16;100957.00;;;4.40
64960;BMP180;51487;52.266;10.542;2023-12-07T14:04:42;100953.00;;;4.40
64960;BMP180;51487;52.266;10.542;2023-12-07T14:07:14;100960.00;;;4.40